Time;durP1;ratioP1;P1;durP2;ratioP2;P2;SDS_P1;SDS_P2;PMS_P1;PMS_P2;Temp;Humidity;BMP_temperature;BMP_pressure;BME280_temperature;BME280_humidity;BME280_pressure;Samples;Min_cycle;Max_cycle;Signal;HPM_P1;HPM_P2
2024/02/15 00:01:00;;;;;;;56.78;22.38;;;;;;;;;;5130734;28;20046;-59
2024/02/15 00:03:25;;;;;;;56.97;22.50;;;;;;;;;;5109682;28;20033;-61
2024/02/15 00:05:51;;;;;;;55.80;24.10;;;;;;;;;;5115682;28;20038;-61
2024/02/15 00:08:16;;;;;;;54.13;24.63;;;;;;;;;;5118228;28;20537;-60
2024/02/15 00:10:41;;;;;;;60.17;26.30;;;;;;;;;;5122879;28;20031;-62
2024/02/15 00:13:07;;;;;;;61.97;27.27;;;;;;;;;;5111665;28;20024;-61
2024/02/15 00:15:36;;;;;;;64.60;28.85;;;;;;;;;;5117999;28;20114;-62
2024/02/15 00:18:03;;;;;;;66.63;29.90;;;;;;;;;;5125446;28;20039;-61
2024/02/15 00:20:28;;;;;;;78.13;30.80;;;;;;;;;;5122741;28;20255;-61
2024/02/15 00:22:55;;;;;;;70.50;31.70;;;;;;;;;;5118183;28;20031;-62
2024/02/15 00:25:21;;;;;;;73.60;31.60;;;;;;;;;;5117827;28;20040;-60
2024/02/15 00:27:46;;;;;;;75.20;32.13;;;;;;;;;;5123320;28;20264;-61
2024/02/15 00:30:12;;;;;;;78.60;33.47;;;;;;;;;;5119877;28;20264;-61
2024/02/15 00:32:38;;;;;;;76.80;33.53;;;;;;;;;;5124855;28;20023;-61
2024/02/15 00:35:07;;;;;;;70.20;30.63;;;;;;;;;;5122741;28;20032;-61
2024/02/15 00:37:33;;;;;;;67.93;33.20;;;;;;;;;;5118321;28;20096;-60
2024/02/15 00:39:58;;;;;;;74.82;31.65;;;;;;;;;;5118059;28;20032;-61
2024/02/15 00:42:23;;;;;;;62.17;29.13;;;;;;;;;;5129175;28;20032;-61
2024/02/15 00:44:49;;;;;;;71.72;32.03;;;;;;;;;;5117645;28;20036;-61
2024/02/15 00:47:18;;;;;;;75.85;34.58;;;;;;;;;;5117525;28;20065;-60
2024/02/15 00:49:44;;;;;;;74.30;33.60;;;;;;;;;;5119834;28;20036;-62
2024/02/15 00:52:09;;;;;;;;;;;;;;;;;;5126143;28;20297;-61
2024/02/15 00:54:35;;;;;;;56.87;26.37;;;;;;;;;;5117369;28;19912;-61
2024/02/15 00:57:00;;;;;;;63.60;28.63;;;;;;;;;;5125654;28;20102;-61
2024/02/15 00:59:26;;;;;;;62.22;26.60;;;;;;;;;;5120098;28;20024;-61
2024/02/15 01:01:53;;;;;;;69.00;29.38;;;;;;;;;;5117702;28;20063;-61
2024/02/15 01:04:18;;;;;;;63.40;28.50;;;;;;;;;;5117161;28;20036;-60
2024/02/15 01:06:44;;;;;;;59.37;27.53;;;;;;;;;;5122070;28;20294;-61
2024/02/15 01:09:10;;;;;;;62.70;28.05;;;;;;;;;;5116252;28;20269;-61
2024/02/15 01:11:36;;;;;;;55.58;25.48;;;;;;;;;;5127389;28;20032;-61
2024/02/15 01:14:02;;;;;;;61.97;26.88;;;;;;;;;;5123357;28;20105;-61
2024/02/15 01:16:27;;;;;;;60.10;26.30;;;;;;;;;;5118138;28;20036;-61
2024/02/15 01:18:53;;;;;;;58.28;25.73;;;;;;;;;;5125766;28;20027;-60
2024/02/15 01:21:19;;;;;;;54.55;22.77;;;;;;;;;;5123299;28;20162;-61
2024/02/15 01:23:46;;;;;;;54.80;23.33;;;;;;;;;;5116781;28;20016;-61
2024/02/15 01:26:12;;;;;;;;;;;;;;;;;;5108045;28;20079;-61
2024/02/15 01:28:38;;;;;;;53.40;21.33;;;;;;;;;;5111802;28;19904;-61
2024/02/15 01:31:03;;;;;;;54.22;21.27;;;;;;;;;;5120911;28;20275;-61
2024/02/15 01:33:29;;;;;;;48.90;21.58;;;;;;;;;;5125426;28;20035;-60
2024/02/15 01:35:54;;;;;;;45.28;19.95;;;;;;;;;;5103376;28;20087;-61
2024/02/15 01:38:20;;;;;;;49.47;20.53;;;;;;;;;;5116893;28;20036;-60
2024/02/15 01:40:46;;;;;;;63.70;21.17;;;;;;;;;;5117569;28;20262;-61
2024/02/15 01:43:12;;;;;;;50.20;20.73;;;;;;;;;;5124734;28;20028;-62
2024/02/15 01:45:38;;;;;;;46.37;20.10;;;;;;;;;;5111607;28;20286;-61
2024/02/15 01:48:04;;;;;;;50.53;19.10;;;;;;;;;;5112369;28;20264;-58
2024/02/15 01:50:32;;;;;;;53.25;18.98;;;;;;;;;;5122246;28;20104;-61
2024/02/15 01:52:59;;;;;;;52.03;20.10;;;;;;;;;;5123942;28;20100;-61
2024/02/15 01:55:25;;;;;;;41.13;20.33;;;;;;;;;;5116339;28;20334;-62
2024/02/15 01:57:53;;;;;;;45.10;19.07;;;;;;;;;;5116289;28;20334;-61
2024/02/15 02:00:19;;;;;;;46.88;19.15;;;;;;;;;;5116664;28;20264;-61
2024/02/15 02:02:45;;;;;;;42.95;17.60;;;;;;;;;;5127316;28;20050;-63
2024/02/15 02:05:10;;;;;;;43.63;18.08;;;;;;;;;;5106006;28;20029;-61
2024/02/15 02:07:37;;;;;;;58.63;19.90;;;;;;;;;;5113117;28;20061;-61
2024/02/15 02:10:02;;;;;;;49.38;17.52;;;;;;;;;;5118807;28;20035;-59
2024/02/15 02:12:28;;;;;;;41.75;18.15;;;;;;;;;;5124425;28;20036;-62
2024/02/15 02:14:56;;;;;;;45.47;20.07;;;;;;;;;;5121769;28;20095;-61
2024/02/15 02:17:23;;;;;;;42.13;17.27;;;;;;;;;;5118792;28;20256;-62
2024/02/15 02:19:52;;;;;;;46.38;17.85;;;;;;;;;;5124611;28;20253;-61
2024/02/15 02:22:19;;;;;;;49.90;18.43;;;;;;;;;;5120969;28;20048;-61
2024/02/15 02:25:00;;;;;;;39.43;18.00;;;;;;;;;;5126480;28;20264;-61
2024/02/15 02:27:28;;;;;;;49.00;19.30;;;;;;;;;;5115565;28;20403;-61
2024/02/15 02:29:55;;;;;;;46.23;18.63;;;;;;;;;;5117556;28;20280;-61
2024/02/15 02:32:21;;;;;;;52.03;17.90;;;;;;;;;;5117316;28;20256;-60
2024/02/15 02:34:47;;;;;;;41.43;18.93;;;;;;;;;;5115902;28;20276;-60
2024/02/15 02:37:13;;;;;;;46.88;18.20;;;;;;;;;;5114099;28;20276;-61
2024/02/15 02:39:39;;;;;;;44.67;17.10;;;;;;;;;;5107453;28;20044;-61
2024/02/15 02:42:05;;;;;;;46.00;18.47;;;;;;;;;;5120734;28;20275;-60
2024/02/15 02:44:30;;;;;;;43.00;17.30;;;;;;;;;;5123012;28;20032;-64
2024/02/15 02:46:57;;;;;;;63.60;18.00;;;;;;;;;;5116201;28;20062;-61
2024/02/15 02:49:22;;;;;;;49.72;17.65;;;;;;;;;;5118038;28;20046;-62
2024/02/15 02:51:48;;;;;;;55.67;18.10;;;;;;;;;;5117323;28;20035;-61
2024/02/15 02:54:15;;;;;;;40.03;17.70;;;;;;;;;;5125053;28;20039;-61
2024/02/15 02:56:40;;;;;;;43.78;15.32;;;;;;;;;;5095985;28;20295;-61
2024/02/15 02:59:07;;;;;;;43.87;16.17;;;;;;;;;;5113345;28;20020;-60
2024/02/15 03:01:32;;;;;;;48.67;16.87;;;;;;;;;;5115020;28;20101;-58
2024/02/15 03:03:58;;;;;;;45.20;16.37;;;;;;;;;;5118027;28;20265;-60
2024/02/15 03:06:24;;;;;;;40.97;15.95;;;;;;;;;;5115389;28;20295;-60
2024/02/15 03:08:54;;;;;;;41.83;17.33;;;;;;;;;;5105350;28;20024;-60
2024/02/15 03:11:20;;;;;;;38.17;15.53;;;;;;;;;;5114730;28;20263;-59
2024/02/15 03:13:46;;;;;;;40.63;15.45;;;;;;;;;;5114201;28;20268;-60
2024/02/15 03:16:12;;;;;;;40.60;14.02;;;;;;;;;;5115063;28;20040;-60
2024/02/15 03:18:37;;;;;;;35.63;13.33;;;;;;;;;;5114936;28;20043;-62
2024/02/15 03:21:04;;;;;;;41.90;13.50;;;;;;;;;;5121589;28;20054;-58
2024/02/15 03:23:29;;;;;;;40.23;14.97;;;;;;;;;;5128064;28;20028;-60
2024/02/15 03:25:55;;;;;;;34.08;13.52;;;;;;;;;;5114835;28;20271;-59
2024/02/15 03:28:21;;;;;;;32.40;11.68;;;;;;;;;;5114554;28;20039;-61
2024/02/15 03:30:46;;;;;;;38.55;13.20;;;;;;;;;;5114657;28;20054;-60
2024/02/15 03:33:13;;;;;;;38.20;13.73;;;;;;;;;;5127178;28;20091;-60
2024/02/15 03:35:38;;;;;;;;;;;;;;;;;;5105261;28;20036;-60
2024/02/15 03:38:04;;;;;;;45.30;12.43;;;;;;;;;;5114141;28;19908;-59
2024/02/15 03:40:30;;;;;;;37.55;12.05;;;;;;;;;;5127651;28;20028;-62
2024/02/15 03:42:56;;;;;;;27.98;10.88;;;;;;;;;;5124116;28;20055;-59
2024/02/15 03:45:25;;;;;;;;;;;;;;;;;;5114942;28;20024;-61
2024/02/15 03:47:55;;;;;;;33.00;10.47;;;;;;;;;;5114399;28;19911;-59
2024/02/15 03:50:21;;;;;;;24.30;9.97;;;;;;;;;;5114639;28;20279;-60
2024/02/15 03:52:47;;;;;;;27.27;11.53;;;;;;;;;;5119818;28;20271;-60
2024/02/15 03:55:13;;;;;;;31.55;10.82;;;;;;;;;;5119003;28;20287;-59
2024/02/15 03:57:45;;;;;;;41.42;11.40;;;;;;;;;;5120008;28;20040;-61
2024/02/15 04:00:14;;;;;;;30.80;9.63;;;;;;;;;;5120956;28;20028;-59
2024/02/15 04:02:41;;;;;;;35.70;9.90;;;;;;;;;;5129519;28;20268;-61
2024/02/15 04:05:07;;;;;;;26.50;9.60;;;;;;;;;;5116923;28;20276;-59
2024/02/15 04:07:33;;;;;;;37.67;10.03;;;;;;;;;;5105266;28;20264;-62
2024/02/15 04:09:59;;;;;;;30.13;9.57;;;;;;;;;;5114818;28;20276;-61
2024/02/15 04:12:26;;;;;;;;;;;;;;;;;;5115645;28;20027;-61
2024/02/15 04:14:52;;;;;;;26.70;8.80;;;;;;;;;;5125437;28;19969;-60
2024/02/15 04:17:21;;;;;;;21.00;9.00;;;;;;;;;;5114466;28;20036;-61
2024/02/15 04:19:47;;;;;;;24.27;9.03;;;;;;;;;;5119849;28;20020;-60
2024/02/15 04:22:16;;;;;;;19.85;8.15;;;;;;;;;;5114115;28;20276;-63
2024/02/15 04:24:43;;;;;;;24.70;8.30;;;;;;;;;;5114349;28;20027;-61
2024/02/15 04:27:13;;;;;;;24.52;9.93;;;;;;;;;;5114345;28;20272;-61
2024/02/15 04:29:41;;;;;;;21.73;8.00;;;;;;;;;;5114285;28;20047;-58
2024/02/15 04:32:10;;;;;;;29.63;7.70;;;;;;;;;;5113933;28;20292;-61
2024/02/15 04:34:41;;;;;;;23.03;7.87;;;;;;;;;;5121211;28;20277;-60
2024/02/15 04:37:07;;;;;;;25.63;7.63;;;;;;;;;;5127566;28;20265;-60
2024/02/15 04:39:35;;;;;;;32.70;8.73;;;;;;;;;;5119238;28;20288;-62
2024/02/15 04:42:01;;;;;;;30.57;8.60;;;;;;;;;;5117965;28;20276;-62
2024/02/15 04:44:27;;;;;;;25.50;8.23;;;;;;;;;;5108651;28;20265;-61
2024/02/15 04:46:53;;;;;;;22.38;7.78;;;;;;;;;;5121641;28;20154;-62
2024/02/15 04:49:19;;;;;;;26.25;9.10;;;;;;;;;;5117926;28;20039;-62
2024/02/15 04:51:45;;;;;;;20.88;7.85;;;;;;;;;;5116204;28;20042;-62
2024/02/15 04:54:13;;;;;;;43.75;8.45;;;;;;;;;;5119083;28;20036;-62
2024/02/15 04:56:42;;;;;;;17.07;7.90;;;;;;;;;;5117895;28;20032;-61
2024/02/15 04:59:11;;;;;;;20.47;7.70;;;;;;;;;;5118349;28;20268;-61
2024/02/15 05:01:37;;;;;;;22.83;7.97;;;;;;;;;;5122853;28;20261;-61
2024/02/15 05:04:07;;;;;;;27.77;8.73;;;;;;;;;;5129896;28;20271;-62
2024/02/15 05:06:32;;;;;;;24.10;8.80;;;;;;;;;;5105680;28;20025;-61
2024/02/15 05:08:59;;;;;;;26.67;7.75;;;;;;;;;;5117467;28;20727;-61
2024/02/15 05:11:25;;;;;;;27.07;8.40;;;;;;;;;;5117692;28;20046;-61
2024/02/15 05:13:50;;;;;;;17.70;6.80;;;;;;;;;;5126337;28;20268;-61
2024/02/15 05:16:16;;;;;;;28.10;8.55;;;;;;;;;;5117183;28;20066;-61
2024/02/15 05:18:41;;;;;;;26.60;8.02;;;;;;;;;;5116874;28;20036;-62
2024/02/15 05:21:10;;;;;;;21.60;7.50;;;;;;;;;;5117773;28;20032;-61
2024/02/15 05:23:37;;;;;;;29.10;9.20;;;;;;;;;;5122057;28;20324;-63
2024/02/15 05:26:03;;;;;;;30.27;8.80;;;;;;;;;;5097515;28;20268;-63
2024/02/15 05:28:29;;;;;;;34.23;10.20;;;;;;;;;;5102990;28;20261;-62
2024/02/15 05:31:14;;;;;;;25.93;9.10;;;;;;;;;;5122658;28;20268;-62
2024/02/15 05:33:43;;;;;;;39.37;13.70;;;;;;;;;;5123198;28;20256;-62
2024/02/15 05:36:10;;;;;;;29.47;12.17;;;;;;;;;;5116675;28;20360;-62
2024/02/15 05:38:35;;;;;;;22.00;10.37;;;;;;;;;;5116517;28;20272;-62
2024/02/15 05:41:02;;;;;;;26.58;9.27;;;;;;;;;;5116857;28;20269;-65
2024/02/15 05:43:28;;;;;;;30.67;9.75;;;;;;;;;;5122575;28;20027;-61
2024/02/15 05:45:53;;;;;;;22.05;8.70;;;;;;;;;;5124647;28;20032;-62
2024/02/15 05:48:19;;;;;;;28.00;7.33;;;;;;;;;;5116312;28;20042;-61
2024/02/15 05:50:44;;;;;;;37.80;9.05;;;;;;;;;;5116364;28;20325;-62
2024/02/15 05:53:10;;;;;;;31.40;9.27;;;;;;;;;;5116065;28;20040;-62
2024/02/15 05:55:37;;;;;;;42.05;8.98;;;;;;;;;;5114208;28;20548;-62
2024/02/15 05:58:03;;;;;;;22.30;8.77;;;;;;;;;;5116593;28;20035;-62
2024/02/15 06:00:30;;;;;;;34.28;9.20;;;;;;;;;;5116704;28;20249;-61
2024/02/15 06:02:56;;;;;;;39.28;9.10;;;;;;;;;;5124283;28;20052;-63
2024/02/15 06:05:21;;;;;;;28.20;9.47;;;;;;;;;;5123448;28;20039;-62
2024/02/15 06:07:47;;;;;;;27.60;8.13;;;;;;;;;;5116060;28;20275;-62
2024/02/15 06:10:14;;;;;;;29.60;10.33;;;;;;;;;;5115075;28;20060;-62
2024/02/15 06:12:40;;;;;;;31.93;9.97;;;;;;;;;;5127693;28;20052;-62
2024/02/15 06:15:14;;;;;;;36.22;11.07;;;;;;;;;;5110157;28;20284;-62
2024/02/15 06:17:39;;;;;;;24.87;9.70;;;;;;;;;;5115085;28;20012;-61
2024/02/15 06:20:05;;;;;;;35.67;10.60;;;;;;;;;;5115771;28;20320;-63
2024/02/15 06:22:31;;;;;;;22.88;11.23;;;;;;;;;;5114822;28;20047;-62
2024/02/15 06:24:57;;;;;;;49.95;14.07;;;;;;;;;;5117859;28;20032;-62
2024/02/15 06:27:24;;;;;;;34.10;13.80;;;;;;;;;;5118143;28;20023;-61
2024/02/15 06:40:46;;;;;;;53.53;12.93;;;;;;;;;;5104278;28;20257;-63
2024/02/15 06:43:11;;;;;;;52.67;13.97;;;;;;;;;;5114557;28;20271;-61
2024/02/15 06:45:40;;;;;;;;;;;;;;;;;;5122217;28;20035;-62
2024/02/15 06:48:07;;;;;;;37.17;9.77;;;;;;;;;;5113133;28;19908;-61
2024/02/15 06:50:32;;;;;;;61.97;11.13;;;;;;;;;;5104033;28;20267;-63
2024/02/15 06:52:58;;;;;;;21.65;7.43;;;;;;;;;;5110192;28;20035;-63
2024/02/15 06:55:23;;;;;;;26.80;7.63;;;;;;;;;;5119134;28;20032;-63
2024/02/15 06:57:49;;;;;;;20.08;6.53;;;;;;;;;;5116754;28;20412;-63
2024/02/15 07:00:15;;;;;;;47.47;8.00;;;;;;;;;;5106965;28;20040;-63
2024/02/15 07:02:41;;;;;;;29.35;7.20;;;;;;;;;;5110466;28;20265;-61
2024/02/15 07:05:06;;;;;;;24.83;8.57;;;;;;;;;;5116357;28;20107;-63
2024/02/15 07:07:32;;;;;;;28.70;7.97;;;;;;;;;;5114468;28;20036;-63
2024/02/15 07:09:57;;;;;;;44.33;9.07;;;;;;;;;;5107505;28;20048;-63
2024/02/15 07:12:23;;;;;;;15.27;7.22;;;;;;;;;;5108833;28;20257;-63
2024/02/15 07:14:48;;;;;;;18.37;7.33;;;;;;;;;;5110636;28;20069;-62
2024/02/15 07:17:14;;;;;;;21.67;6.90;;;;;;;;;;5104278;28;20024;-62
2024/02/15 07:19:44;;;;;;;38.53;7.82;;;;;;;;;;5114760;28;20028;-62
2024/02/15 07:22:09;;;;;;;23.27;9.70;;;;;;;;;;5116797;28;20036;-63
2024/02/15 07:24:38;;;;;;;39.55;9.23;;;;;;;;;;5120501;28;20256;-63
2024/02/15 07:27:04;;;;;;;1.37;1.27;;;;;;;;;;5111229;28;20036;-63
2024/02/15 07:29:31;;;;;;;1.60;0.75;;;;;;;;;;5110423;28;20257;-63
2024/02/15 07:31:57;;;;;;;0.27;0.27;;;;;;;;;;5114668;28;20039;-63
2024/02/15 07:34:23;;;;;;;0.82;0.75;;;;;;;;;;5123623;28;20253;-63
2024/02/15 07:36:50;;;;;;;0.73;0.57;;;;;;;;;;5114447;28;20032;-62
2024/02/15 07:39:23;;;;;;;4.10;1.80;;;;;;;;;;5103277;28;20103;-62
2024/02/15 07:41:49;;;;;;;0.07;0.07;;;;;;;;;;5109901;28;20265;-62
2024/02/15 07:44:14;;;;;;;0.80;0.80;;;;;;;;;;5108892;28;20343;-63
2024/02/15 07:46:41;;;;;;;0.70;0.70;;;;;;;;;;5119603;28;20028;-63
2024/02/15 07:49:08;;;;;;;0.10;0.10;;;;;;;;;;5114342;28;20027;-63
2024/02/15 07:51:33;;;;;;;0.60;0.60;;;;;;;;;;5114210;28;20274;-63
2024/02/15 07:53:58;;;;;;;0.87;0.57;;;;;;;;;;5118858;28;20040;-63
2024/02/15 07:56:24;;;;;;;0.52;0.52;;;;;;;;;;5113792;28;20031;-63
2024/02/15 07:58:51;;;;;;;0.60;0.57;;;;;;;;;;5113455;28;20024;-63
2024/02/15 08:01:17;;;;;;;0.30;0.30;;;;;;;;;;5113032;28;20052;-63
2024/02/15 08:03:45;;;;;;;0.70;0.70;;;;;;;;;;5112995;28;20272;-64
2024/02/15 08:06:14;;;;;;;1.53;1.03;;;;;;;;;;5111273;28;20045;-63
2024/02/15 08:08:45;;;;;;;0.47;0.47;;;;;;;;;;5113028;28;20355;-63
2024/02/15 08:11:14;;;;;;;0.60;0.60;;;;;;;;;;5115252;28;20253;-62
2024/02/15 08:13:49;;;;;;;0.20;0.20;;;;;;;;;;5112087;28;20268;-63
2024/02/15 08:16:20;;;;;;;7.43;2.43;;;;;;;;;;5116086;28;20306;-63
2024/02/15 08:18:46;;;;;;;4.47;1.37;;;;;;;;;;5113242;28;20277;-63
2024/02/15 08:21:11;;;;;;;0.83;0.83;;;;;;;;;;5117867;28;20272;-63
2024/02/15 08:23:37;;;;;;;0.63;0.63;;;;;;;;;;5119488;28;20095;-63
2024/02/15 08:26:02;;;;;;;3.13;2.45;;;;;;;;;;5119240;28;20040;-63
2024/02/15 08:28:28;;;;;;;2.13;1.90;;;;;;;;;;5105230;28;20052;-64
2024/02/15 08:30:54;;;;;;;1.40;1.30;;;;;;;;;;5110005;28;20047;-64
2024/02/15 08:33:19;;;;;;;1.40;1.30;;;;;;;;;;5101109;28;20286;-63
2024/02/15 08:35:45;;;;;;;1.60;1.50;;;;;;;;;;5112090;28;20052;-63
2024/02/15 08:38:10;;;;;;;2.87;2.60;;;;;;;;;;5101754;28;20029;-63
2024/02/15 08:40:36;;;;;;;0.98;0.98;;;;;;;;;;5111559;28;20023;-62
2024/02/15 08:43:02;;;;;;;4.38;1.00;;;;;;;;;;5103877;28;20024;-63
2024/02/15 08:45:28;;;;;;;0.10;0.10;;;;;;;;;;5128171;28;20077;-63
2024/02/15 08:47:53;;;;;;;1.23;1.00;;;;;;;;;;5109432;28;20037;-64
2024/02/15 08:50:19;;;;;;;0.83;0.83;;;;;;;;;;5107535;28;20037;-64
2024/02/15 08:52:46;;;;;;;1.47;1.17;;;;;;;;;;5116971;28;20043;-63
2024/02/15 08:55:14;;;;;;;;;;;;;;;;;;5112599;28;20283;-63
2024/02/15 08:57:40;;;;;;;0.53;0.53;;;;;;;;;;5107909;28;20062;-62
2024/02/15 09:00:13;;;;;;;0.20;0.20;;;;;;;;;;5116706;28;20303;-63
2024/02/15 09:02:51;;;;;;;0.30;0.30;;;;;;;;;;5108628;28;20032;-63
2024/02/15 09:05:18;;;;;;;0.73;0.73;;;;;;;;;;5126618;28;20256;-62
2024/02/15 09:07:44;;;;;;;0.30;0.30;;;;;;;;;;5108137;28;20328;-63
2024/02/15 09:10:10;;;;;;;;;;;;;;;;;;5124774;28;20275;-62
2024/02/15 09:12:39;;;;;;;28.57;3.03;;;;;;;;;;5107835;28;19907;-62
2024/02/15 09:15:05;;;;;;;1.40;1.03;;;;;;;;;;5121293;28;20307;-63
2024/02/15 09:17:32;;;;;;;1.13;0.85;;;;;;;;;;5106603;28;20260;-62
2024/02/15 09:19:57;;;;;;;0.10;0.10;;;;;;;;;;5111964;28;20039;-62
2024/02/15 09:22:23;;;;;;;3.75;1.88;;;;;;;;;;5109770;28;20256;-62
2024/02/15 09:24:49;;;;;;;0.40;0.40;;;;;;;;;;5119439;28;20046;-63
2024/02/15 09:27:14;;;;;;;0.20;0.20;;;;;;;;;;5110130;28;20036;-62
2024/02/15 09:29:40;;;;;;;0.57;0.57;;;;;;;;;;5104423;28;20067;-63
2024/02/15 09:32:05;;;;;;;0.20;0.20;;;;;;;;;;5111258;28;20024;-62
2024/02/15 09:34:32;;;;;;;0.13;0.13;;;;;;;;;;5114626;28;20078;-62
2024/02/15 09:36:58;;;;;;;0.50;0.50;;;;;;;;;;5124389;28;20028;-62
2024/02/15 09:39:23;;;;;;;0.23;0.23;;;;;;;;;;5107530;28;20262;-62
2024/02/15 09:41:58;;;;;;;1.30;0.73;;;;;;;;;;5104403;28;20275;-63
2024/02/15 09:44:27;;;;;;;3.73;0.70;;;;;;;;;;5104083;28;20332;-61
2024/02/15 09:47:00;;;;;;;1.90;0.87;;;;;;;;;;5116902;28;20252;-62
2024/02/15 09:49:26;;;;;;;0.80;0.80;;;;;;;;;;5115736;28;20269;-62
2024/02/15 09:51:52;;;;;;;0.30;0.30;;;;;;;;;;5108926;28;20039;-62
2024/02/15 09:54:22;;;;;;;0.45;0.45;;;;;;;;;;5096483;28;20047;-62
2024/02/15 09:56:52;;;;;;;0.10;0.10;;;;;;;;;;5111625;28;20075;-63
2024/02/15 09:59:18;;;;;;;0.63;0.63;;;;;;;;;;5110848;28;20248;-62
2024/02/15 10:01:46;;;;;;;0.52;0.52;;;;;;;;;;5108812;28;20269;-62
2024/02/15 10:04:15;;;;;;;1.37;1.27;;;;;;;;;;5111232;28;20028;-62
2024/02/15 10:06:41;;;;;;;4.70;2.63;;;;;;;;;;5110712;28;20272;-62
2024/02/15 10:09:27;;;;;;;2.85;1.73;;;;;;;;;;5115770;28;20266;-63
2024/02/15 10:11:57;;;;;;;1.07;0.70;;;;;;;;;;5115899;28;20036;-62
2024/02/15 10:14:26;;;;;;;0.20;0.20;;;;;;;;;;5115633;28;20320;-62
2024/02/15 10:16:53;;;;;;;3.90;2.17;;;;;;;;;;5127081;28;20290;-63
2024/02/15 10:19:24;;;;;;;2.00;1.90;;;;;;;;;;5103074;28;20085;-62
2024/02/15 10:21:55;;;;;;;0.53;0.53;;;;;;;;;;5112808;28;20245;-62
2024/02/15 10:24:24;;;;;;;2.43;1.53;;;;;;;;;;5113440;28;20325;-62
2024/02/15 10:26:50;;;;;;;0.33;0.33;;;;;;;;;;5121065;28;20256;-62
2024/02/15 10:29:17;;;;;;;0.30;0.30;;;;;;;;;;5113932;28;20272;-62
2024/02/15 10:32:01;;;;;;;0.47;0.47;;;;;;;;;;5112960;28;20260;-61
2024/02/15 10:34:28;;;;;;;0.53;0.53;;;;;;;;;;5113491;28;20050;-62
2024/02/15 10:36:56;;;;;;;2.25;2.08;;;;;;;;;;5122977;28;20087;-61
2024/02/15 10:39:23;;;;;;;0.20;0.20;;;;;;;;;;5106155;28;20126;-62
2024/02/15 10:41:52;;;;;;;0.43;0.43;;;;;;;;;;5111477;28;20028;-61
2024/02/15 10:44:19;;;;;;;0.67;0.67;;;;;;;;;;5106220;28;20055;-61
2024/02/15 10:46:45;;;;;;;7.00;1.20;;;;;;;;;;5117517;28;20028;-61
2024/02/15 10:49:11;;;;;;;0.20;0.20;;;;;;;;;;5115133;28;20042;-63
2024/02/15 10:51:42;;;;;;;2.03;0.98;;;;;;;;;;5114357;28;20051;-62
2024/02/15 10:54:12;;;;;;;1.30;1.13;;;;;;;;;;5114014;28;20043;-61
2024/02/15 10:56:42;;;;;;;0.40;0.40;;;;;;;;;;5110466;28;20028;-61
2024/02/15 10:59:16;;;;;;;0.20;0.20;;;;;;;;;;5114753;28;20048;-61
2024/02/15 11:01:42;;;;;;;0.73;0.50;;;;;;;;;;5102719;28;20016;-60
2024/02/15 11:04:08;;;;;;;0.15;0.15;;;;;;;;;;5114785;28;20059;-60
2024/02/15 11:06:35;;;;;;;1.50;1.38;;;;;;;;;;5114879;28;20028;-61
2024/02/15 11:09:02;;;;;;;0.25;0.25;;;;;;;;;;5114387;28;20091;-61
2024/02/15 11:11:29;;;;;;;0.20;0.20;;;;;;;;;;5114885;28;20051;-61
2024/02/15 11:14:15;;;;;;;10.77;2.10;;;;;;;;;;5114788;28;20032;-61
2024/02/15 11:16:43;;;;;;;0.17;0.17;;;;;;;;;;5114431;28;20028;-61
2024/02/15 11:19:10;;;;;;;1.23;0.53;;;;;;;;;;5110301;28;20084;-61
2024/02/15 11:21:56;;;;;;;0.20;0.20;;;;;;;;;;5094931;28;20074;-62
2024/02/15 11:24:27;;;;;;;0.10;0.10;;;;;;;;;;5101425;28;20028;-61
2024/02/15 11:26:57;;;;;;;2.27;1.07;;;;;;;;;;5114493;28;20028;-62
2024/02/15 11:29:41;;;;;;;0.20;0.20;;;;;;;;;;5119852;28;20043;-62
2024/02/15 11:32:08;;;;;;;0.57;0.57;;;;;;;;;;5114870;28;20032;-61
2024/02/15 11:34:46;;;;;;;5.03;1.50;;;;;;;;;;5113851;28;20108;-61
2024/02/15 11:37:31;;;;;;;1.73;1.43;;;;;;;;;;5114579;28;20048;-60
2024/02/15 11:40:00;;;;;;;0.20;0.20;;;;;;;;;;5115994;28;20028;-61
2024/02/15 11:42:29;;;;;;;0.40;0.40;;;;;;;;;;5114614;28;20077;-60
2024/02/15 11:45:04;;;;;;;0.33;0.33;;;;;;;;;;5116205;28;20028;-61
2024/02/15 11:47:33;;;;;;;0.27;0.27;;;;;;;;;;5127463;28;20045;-61
2024/02/15 11:49:59;;;;;;;0.73;0.57;;;;;;;;;;5120629;28;20054;-60
2024/02/15 11:52:26;;;;;;;0.40;0.40;;;;;;;;;;5118833;28;20047;-61
2024/02/15 11:54:51;;;;;;;3.50;1.10;;;;;;;;;;5118064;28;20032;-60
2024/02/15 11:57:25;;;;;;;0.10;0.10;;;;;;;;;;5126246;28;20027;-61
2024/02/15 12:00:12;;;;;;;0.43;0.30;;;;;;;;;;5125980;28;20040;-60
2024/02/15 12:19:17;;;;;;;0.53;0.53;;;;;;;;;;5123984;28;20035;-60
2024/02/15 12:21:43;;;;;;;0.77;0.77;;;;;;;;;;5120590;28;20024;-61
2024/02/15 12:24:08;;;;;;;0.43;0.43;;;;;;;;;;5118145;28;20066;-61
2024/02/15 12:26:35;;;;;;;0.57;0.57;;;;;;;;;;5117984;28;20035;-61
2024/02/15 12:29:01;;;;;;;0.28;0.28;;;;;;;;;;5130422;28;20095;-60
2024/02/15 12:31:26;;;;;;;;;;;;;;;;;;5118578;28;20051;-61
2024/02/15 12:34:07;;;;;;;0.10;0.10;;;;;;;;;;5117582;28;19947;-60
2024/02/15 12:36:36;;;;;;;0.10;0.10;;;;;;;;;;5117580;28;20126;-60
2024/02/15 12:39:11;;;;;;;1.07;0.97;;;;;;;;;;5127258;28;20052;-60
2024/02/15 12:41:42;;;;;;;0.20;0.20;;;;;;;;;;5117557;28;20028;-60
2024/02/15 12:44:10;;;;;;;3.40;0.97;;;;;;;;;;5117765;28;20049;-60
2024/02/15 12:46:38;;;;;;;0.83;0.83;;;;;;;;;;5117707;28;20028;-60
2024/02/15 12:49:13;;;;;;;0.53;0.53;;;;;;;;;;5125937;28;20035;-60
2024/02/15 12:51:40;;;;;;;2.17;1.65;;;;;;;;;;5117254;28;20091;-60
2024/02/15 12:54:06;;;;;;;;;;;;;;;;;;5117852;28;20062;-60
2024/02/15 12:56:31;;;;;;;0.40;0.40;;;;;;;;;;5112262;28;19944;-61
2024/02/15 12:58:57;;;;;;;0.17;0.17;;;;;;;;;;5122554;28;20050;-59
2024/02/15 13:01:23;;;;;;;0.17;0.17;;;;;;;;;;5116553;28;20099;-60
2024/02/15 13:03:49;;;;;;;6.05;3.40;;;;;;;;;;5117169;28;20036;-60
2024/02/15 13:06:15;;;;;;;0.50;0.50;;;;;;;;;;5117146;28;20052;-61
2024/02/15 13:08:40;;;;;;;0.15;0.15;;;;;;;;;;5127949;28;20035;-60
2024/02/15 13:11:08;;;;;;;0.73;0.73;;;;;;;;;;5118902;28;20042;-60
2024/02/15 13:13:34;;;;;;;0.10;0.10;;;;;;;;;;5105229;28;20047;-60
2024/02/15 13:16:01;;;;;;;0.63;0.52;;;;;;;;;;5102222;28;20036;-59
2024/02/15 13:18:28;;;;;;;0.13;0.13;;;;;;;;;;5118211;28;20050;-60
2024/02/15 13:20:54;;;;;;;0.10;0.10;;;;;;;;;;5116025;28;20087;-60
2024/02/15 13:23:22;;;;;;;0.05;0.05;;;;;;;;;;5116742;28;20040;-60
2024/02/15 13:25:49;;;;;;;0.10;0.10;;;;;;;;;;5116906;28;20145;-60
2024/02/15 13:28:14;;;;;;;;;;;;;;;;;;5127173;28;20091;-61
2024/02/15 13:30:41;;;;;;;0.37;0.37;;;;;;;;;;5116633;28;19919;-61
2024/02/15 13:33:06;;;;;;;0.40;0.40;;;;;;;;;;5116951;28;20055;-61
2024/02/15 13:35:32;;;;;;;0.55;0.55;;;;;;;;;;5110858;28;20036;-60
2024/02/15 13:37:58;;;;;;;0.60;0.60;;;;;;;;;;5110556;28;20068;-60
2024/02/15 13:40:24;;;;;;;;;;;;;;;;;;5121808;28;20020;-60
2024/02/15 13:42:55;;;;;;;0.50;0.50;;;;;;;;;;5124308;28;19975;-61
2024/02/15 13:45:29;;;;;;;0.30;0.30;;;;;;;;;;5116817;28;20027;-61
2024/02/15 13:47:56;;;;;;;0.10;0.10;;;;;;;;;;5116753;28;20028;-60
2024/02/15 13:50:21;;;;;;;0.37;0.37;;;;;;;;;;5108797;28;20019;-60
2024/02/15 13:52:47;;;;;;;3.08;0.98;;;;;;;;;;5121360;28;20060;-60
2024/02/15 13:55:14;;;;;;;0.70;0.40;;;;;;;;;;5116556;28;20043;-60
2024/02/15 13:57:41;;;;;;;0.53;0.50;;;;;;;;;;5117364;28;20050;-59
2024/02/15 14:00:12;;;;;;;0.00;0.00;;;;;;;;;;5119068;28;20104;-60
2024/02/15 14:02:39;;;;;;;0.13;0.13;;;;;;;;;;5115756;28;20028;-59
2024/02/15 14:05:08;;;;;;;1.73;0.47;;;;;;;;;;5116338;28;20106;-59
2024/02/15 14:07:35;;;;;;;0.37;0.37;;;;;;;;;;5116696;28;20039;-61
2024/02/15 14:10:01;;;;;;;0.17;0.17;;;;;;;;;;5125098;28;20061;-60
2024/02/15 14:12:27;;;;;;;0.10;0.10;;;;;;;;;;5106007;28;20024;-60
2024/02/15 14:14:52;;;;;;;0.38;0.38;;;;;;;;;;5115921;28;20185;-60
2024/02/15 14:17:19;;;;;;;0.00;0.00;;;;;;;;;;5117879;28;20032;-60
2024/02/15 14:19:45;;;;;;;0.50;0.50;;;;;;;;;;5125421;28;20019;-60
2024/02/15 14:22:15;;;;;;;1.93;1.17;;;;;;;;;;5115677;28;20087;-59
2024/02/15 14:24:44;;;;;;;0.40;0.40;;;;;;;;;;5115892;28;20024;-61
2024/02/15 14:27:10;;;;;;;0.10;0.10;;;;;;;;;;5114841;28;20032;-60
2024/02/15 14:29:44;;;;;;;0.40;0.40;;;;;;;;;;5125553;28;20031;-61
2024/02/15 14:34:55;;;;;;;1.13;1.03;;;;;;;;;;5115546;28;20044;-60
2024/02/15 14:37:22;;;;;;;0.20;0.20;;;;;;;;;;5116871;28;20066;-60
2024/02/15 14:39:48;;;;;;;0.47;0.40;;;;;;;;;;5124155;28;20023;-59
2024/02/15 14:42:14;;;;;;;0.10;0.10;;;;;;;;;;5119816;28;20043;-60
2024/02/15 14:44:39;;;;;;;;;;;;;;;;;;5115587;28;20032;-59
2024/02/15 14:47:05;;;;;;;0.47;0.27;;;;;;;;;;5115476;28;19931;-60
2024/02/15 14:49:30;;;;;;;0.00;0.00;;;;;;;;;;5120161;28;20055;-59
2024/02/15 14:51:56;;;;;;;0.65;0.65;;;;;;;;;;5115451;28;20099;-59
2024/02/15 14:54:21;;;;;;;0.15;0.15;;;;;;;;;;5113721;28;20036;-59
2024/02/15 14:56:48;;;;;;;0.13;0.13;;;;;;;;;;5114760;28;20032;-59
2024/02/15 14:59:15;;;;;;;0.38;0.38;;;;;;;;;;5114975;28;20054;-59
2024/02/15 15:01:40;;;;;;;0.23;0.23;;;;;;;;;;5110571;28;20066;-60
2024/02/15 15:04:08;;;;;;;0.57;0.57;;;;;;;;;;5114595;28;20024;-60
2024/02/15 15:14:47;;;;;;;0.40;0.40;;;;;;;;;;5102472;28;20028;-60